Hanzhong, China
Current Conditions -  °F | °C
As of 8:00 PM on Saturday 25 Oct 2014 (Local Time) from ZLXY Reporting Station
Haze Haze  
Wind Chill: 55°   Ceiling: Unl
Heat Index: 55°   Visibility: 3mi
Dew Point: 52°   Wind: 2mph
Humidity: 88%   Direction: NA
Pressure: 29.94"   Gusts: NA
Location:  33.13°N, 107.03°E
Report Text: ZLXY 251200Z VRB01MPS 5000 BR NSC 13/11 Q1014 NOSIG
Loading
Personal Weather Stations






























Interactive Weather Map New forecast layout! Learn more

10-Day Weather Forecast

Advertisements
Track Severe Weather on mobile